Terminal Aerodrome Forecast
Issued by NWS

Home | Current Version | Previous Version | Text Only | Print | Product List | Glossary On
Versions: 1 2 3 4 5 6 7 8 9 10 11 12 13 14 15 16 17 18 19 20 21 22 23 24 25 26 27 28 29 30
751
FTUS42 KCAE 212035 AAA
TAFCUB
TAF AMD
KCUB 212035Z 2121/2218 10007KT P6SM OVC035
     FM220200 09004KT P6SM BKN015
     FM221100 09003KT 1SM BR OVC004
     FM221600 12007KT P6SM BKN015=

USA.gov is the U.S. government's official web portal to all federal, state and local government web resources and services.